Time;durP1;ratioP1;P1;durP2;ratioP2;P2;SDS_P1;SDS_P2;PMS_P1;PMS_P2;Temp;Humidity;BMP_temperature;BMP_pressure;BME280_temperature;BME280_humidity;BME280_pressure;Samples;Min_cycle;Max_cycle;Signal;HPM_P1;HPM_P2
2023/07/23 00:01:41;;;;;;;8.17;4.37;;;;;;;;;;5108950;27;20080;-46
2023/07/23 00:04:07;;;;;;;6.53;3.77;;;;;;;;;;5105470;28;20015;-47
2023/07/23 00:06:33;;;;;;;8.13;4.90;;;;;;;;;;5094798;27;20269;-45
2023/07/23 00:08:58;;;;;;;7.50;4.10;;;;;;;;;;5102919;28;20296;-45
2023/07/23 00:11:23;;;;;;;8.30;4.63;;;;;;;;;;5103444;28;20020;-46
2023/07/23 00:13:49;;;;;;;4.55;2.45;;;;;;;;;;5104484;28;20046;-46
2023/07/23 00:16:14;;;;;;;9.63;4.57;;;;;;;;;;5102238;28;20559;-44
2023/07/23 00:18:40;;;;;;;9.00;4.20;;;;;;;;;;5092705;28;20027;-45
2023/07/23 00:21:05;;;;;;;9.07;4.10;;;;;;;;;;5101810;28;20273;-46
2023/07/23 00:23:30;;;;;;;9.90;4.47;;;;;;;;;;5105234;28;20019;-47
2023/07/23 00:25:55;;;;;;;8.80;4.73;;;;;;;;;;5102799;28;20626;-46
2023/07/23 00:28:21;;;;;;;9.03;4.70;;;;;;;;;;5101812;28;20305;-46
2023/07/23 00:30:46;;;;;;;4.95;2.63;;;;;;;;;;5101410;28;20027;-46
2023/07/23 00:33:12;;;;;;;7.00;4.50;;;;;;;;;;5104376;28;20070;-46
2023/07/23 00:35:37;;;;;;;8.60;4.03;;;;;;;;;;5105427;28;20041;-45
2023/07/23 00:38:03;;;;;;;6.47;4.00;;;;;;;;;;5086216;28;20027;-46
2023/07/23 00:40:28;;;;;;;7.67;4.27;;;;;;;;;;5099537;28;20026;-45
2023/07/23 00:42:53;;;;;;;10.52;4.97;;;;;;;;;;5102389;28;20329;-45
2023/07/23 00:45:19;;;;;;;10.83;5.03;;;;;;;;;;5104042;27;20072;-46
2023/07/23 00:47:45;;;;;;;8.02;4.47;;;;;;;;;;5098857;28;20453;-45
2023/07/23 00:50:12;;;;;;;16.02;5.00;;;;;;;;;;5103217;28;20039;-45
2023/07/23 00:52:38;;;;;;;10.43;4.65;;;;;;;;;;5106424;28;20030;-45
2023/07/23 00:55:03;;;;;;;13.77;5.80;;;;;;;;;;5098744;28;20102;-45
2023/07/23 00:57:28;;;;;;;9.93;4.85;;;;;;;;;;5101167;27;20289;-45
2023/07/23 00:59:56;;;;;;;8.87;5.07;;;;;;;;;;5097439;28;20028;-46
2023/07/23 01:02:22;;;;;;;8.77;4.55;;;;;;;;;;5101000;28;20031;-45
2023/07/23 01:04:48;;;;;;;10.88;5.97;;;;;;;;;;5096931;28;20858;-47
2023/07/23 01:07:13;;;;;;;8.50;5.17;;;;;;;;;;5104184;28;20032;-46
2023/07/23 01:09:39;;;;;;;8.63;5.18;;;;;;;;;;5104778;28;20036;-45
2023/07/23 01:12:05;;;;;;;9.50;4.97;;;;;;;;;;5092168;28;20094;-46
2023/07/23 01:14:30;;;;;;;9.32;5.75;;;;;;;;;;5102615;28;20032;-46
2023/07/23 01:16:57;;;;;;;10.30;5.90;;;;;;;;;;5097417;28;20082;-46
2023/07/23 01:19:26;;;;;;;10.38;5.70;;;;;;;;;;5102342;28;20032;-46
2023/07/23 01:21:53;;;;;;;9.35;5.88;;;;;;;;;;5101429;28;20024;-45
2023/07/23 01:24:18;;;;;;;9.18;5.35;;;;;;;;;;5096419;28;20027;-46
2023/07/23 01:26:43;;;;;;;8.10;4.93;;;;;;;;;;5097469;28;20034;-46
2023/07/23 01:29:10;;;;;;;10.87;5.67;;;;;;;;;;5102776;28;20371;-45
2023/07/23 01:31:35;;;;;;;7.57;5.15;;;;;;;;;;5102164;28;20686;-46
2023/07/23 01:34:04;;;;;;;10.20;5.33;;;;;;;;;;5103357;28;20020;-46
2023/07/23 01:36:29;;;;;;;9.05;4.75;;;;;;;;;;5104638;28;20280;-45
2023/07/23 01:38:54;;;;;;;10.87;5.73;;;;;;;;;;5103631;28;20035;-46
2023/07/23 01:41:20;;;;;;;8.73;5.77;;;;;;;;;;5103164;28;20281;-47
2023/07/23 01:43:45;;;;;;;14.95;5.38;;;;;;;;;;5092019;28;20269;-47
2023/07/23 01:46:10;;;;;;;8.87;5.17;;;;;;;;;;5098803;28;20031;-46
2023/07/23 01:48:35;;;;;;;11.37;4.73;;;;;;;;;;5097362;28;20020;-45
2023/07/23 01:51:01;;;;;;;10.60;5.57;;;;;;;;;;5100126;28;20856;-46
2023/07/23 01:53:26;;;;;;;10.60;5.50;;;;;;;;;;5103940;28;20028;-46
2023/07/23 01:55:51;;;;;;;10.50;6.07;;;;;;;;;;5101006;28;20277;-46
2023/07/23 01:58:17;;;;;;;7.88;4.80;;;;;;;;;;5100875;28;20481;-45
2023/07/23 02:00:42;;;;;;;10.45;5.30;;;;;;;;;;5098335;28;20032;-45
2023/07/23 02:03:08;;;;;;;9.13;5.43;;;;;;;;;;5103684;28;20024;-46
2023/07/23 02:05:34;;;;;;;12.50;5.00;;;;;;;;;;5103711;27;20027;-48
2023/07/23 02:08:00;;;;;;;9.43;5.03;;;;;;;;;;5107338;28;20168;-45
2023/07/23 02:10:25;;;;;;;8.77;5.57;;;;;;;;;;5099483;27;20031;-45
2023/07/23 02:12:50;;;;;;;9.23;5.67;;;;;;;;;;5106340;28;20042;-45
2023/07/23 02:15:16;;;;;;;10.13;5.00;;;;;;;;;;5106148;28;20315;-45
2023/07/23 02:17:42;;;;;;;9.75;5.22;;;;;;;;;;5103360;28;20020;-46
2023/07/23 02:20:08;;;;;;;8.82;5.55;;;;;;;;;;5104876;28;20034;-47
2023/07/23 02:22:33;;;;;;;8.23;5.50;;;;;;;;;;5102553;27;20791;-45
2023/07/23 02:24:59;;;;;;;10.30;5.57;;;;;;;;;;5105473;28;20115;-46
2023/07/23 02:27:24;;;;;;;11.53;5.87;;;;;;;;;;5102106;27;20281;-45
2023/07/23 02:29:49;;;;;;;10.47;5.53;;;;;;;;;;5096232;28;20376;-47
2023/07/23 02:32:14;;;;;;;12.40;5.73;;;;;;;;;;5104810;27;20050;-45
2023/07/23 02:34:40;;;;;;;9.10;5.33;;;;;;;;;;5105528;28;20281;-45
2023/07/23 02:37:05;;;;;;;7.03;4.77;;;;;;;;;;5106101;28;20686;-46
2023/07/23 02:39:30;;;;;;;10.27;5.03;;;;;;;;;;5104579;28;20043;-45
2023/07/23 02:41:56;;;;;;;7.70;5.18;;;;;;;;;;5103223;28;20027;-45
2023/07/23 02:44:21;;;;;;;9.47;6.10;;;;;;;;;;5105670;28;20032;-46
2023/07/23 02:46:46;;;;;;;10.10;6.03;;;;;;;;;;5100889;28;20027;-46
2023/07/23 02:49:12;;;;;;;9.40;5.73;;;;;;;;;;5103954;28;20027;-46
2023/07/23 02:51:37;;;;;;;9.10;5.90;;;;;;;;;;5104483;27;20286;-46
2023/07/23 02:54:03;;;;;;;8.83;5.93;;;;;;;;;;5106802;28;20024;-45
2023/07/23 02:56:28;;;;;;;6.35;3.80;;;;;;;;;;5102807;28;20497;-45
2023/07/23 02:58:53;;;;;;;8.70;5.18;;;;;;;;;;5104750;28;20036;-45
2023/07/23 03:01:20;;;;;;;9.77;6.30;;;;;;;;;;5102761;28;20087;-45
2023/07/23 03:03:47;;;;;;;10.57;6.50;;;;;;;;;;5105180;28;20085;-45
2023/07/23 03:06:13;;;;;;;9.95;6.43;;;;;;;;;;5101394;28;20024;-45
2023/07/23 03:08:38;;;;;;;9.65;6.38;;;;;;;;;;5106109;28;20023;-45
2023/07/23 03:11:04;;;;;;;10.73;5.97;;;;;;;;;;5104161;27;20023;-46
2023/07/23 03:13:30;;;;;;;9.82;5.93;;;;;;;;;;5104071;28;20277;-45
2023/07/23 03:15:55;;;;;;;13.20;6.50;;;;;;;;;;5103061;28;20084;-46
2023/07/23 03:18:20;;;;;;;10.83;7.00;;;;;;;;;;5105639;28;20044;-46
2023/07/23 03:20:45;;;;;;;7.60;3.95;;;;;;;;;;5094256;28;20051;-45
2023/07/23 03:23:11;;;;;;;9.70;6.63;;;;;;;;;;5103105;28;20122;-46
2023/07/23 03:25:36;;;;;;;11.27;6.77;;;;;;;;;;5094031;27;20277;-46
2023/07/23 03:28:01;;;;;;;11.93;6.47;;;;;;;;;;5105137;28;20043;-45
2023/07/23 03:30:27;;;;;;;14.20;6.53;;;;;;;;;;5101653;28;21648;-45
2023/07/23 03:32:52;;;;;;;9.98;6.13;;;;;;;;;;5104500;28;20028;-46
2023/07/23 03:35:18;;;;;;;11.07;7.07;;;;;;;;;;5093795;28;20031;-45
2023/07/23 03:37:44;;;;;;;10.65;6.68;;;;;;;;;;5097367;28;20114;-47
2023/07/23 03:40:09;;;;;;;10.63;6.78;;;;;;;;;;5103009;28;21074;-45
2023/07/23 03:42:34;;;;;;;11.95;7.15;;;;;;;;;;5105121;28;20514;-46
2023/07/23 03:45:00;;;;;;;11.30;6.57;;;;;;;;;;5103356;28;20504;-45
2023/07/23 03:47:25;;;;;;;8.77;5.90;;;;;;;;;;5104295;28;20032;-46
2023/07/23 03:49:50;;;;;;;8.90;5.83;;;;;;;;;;5105579;28;20032;-45
2023/07/23 03:52:15;;;;;;;9.77;6.67;;;;;;;;;;5101043;27;20516;-46
2023/07/23 03:54:40;;;;;;;11.90;7.43;;;;;;;;;;5101283;28;20257;-46
2023/07/23 03:57:06;;;;;;;11.33;6.97;;;;;;;;;;5081724;27;20032;-45
2023/07/23 03:59:35;;;;;;;11.88;7.40;;;;;;;;;;5090232;28;20502;-45
2023/07/23 04:02:01;;;;;;;9.98;6.55;;;;;;;;;;5102971;27;20024;-46
2023/07/23 04:04:26;;;;;;;13.50;6.47;;;;;;;;;;5103761;28;20164;-46
2023/07/23 04:06:51;;;;;;;13.35;6.57;;;;;;;;;;5102919;27;20028;-45
2023/07/23 04:09:17;;;;;;;11.52;6.95;;;;;;;;;;5106903;28;20024;-45
2023/07/23 04:11:42;;;;;;;10.18;6.90;;;;;;;;;;5101098;28;20478;-45
2023/07/23 04:14:08;;;;;;;11.90;6.18;;;;;;;;;;5102037;28;20020;-47
2023/07/23 04:16:33;;;;;;;11.80;5.93;;;;;;;;;;5095245;28;20020;-46
2023/07/23 04:18:58;;;;;;;9.73;6.40;;;;;;;;;;5103983;28;20027;-46
2023/07/23 04:21:23;;;;;;;8.77;5.47;;;;;;;;;;5105419;28;20027;-46
2023/07/23 04:23:49;;;;;;;9.35;6.03;;;;;;;;;;5106009;28;20262;-45
2023/07/23 04:26:16;;;;;;;12.18;7.15;;;;;;;;;;5102719;28;20028;-45
2023/07/23 04:28:41;;;;;;;12.68;6.40;;;;;;;;;;5102839;28;20020;-46
2023/07/23 04:31:06;;;;;;;10.37;7.10;;;;;;;;;;5102249;28;20039;-45
2023/07/23 04:33:31;;;;;;;10.25;6.47;;;;;;;;;;5097396;28;20356;-46
2023/07/23 04:35:57;;;;;;;11.47;6.83;;;;;;;;;;5092058;27;20130;-46
2023/07/23 04:38:22;;;;;;;12.03;6.97;;;;;;;;;;5100530;28;20024;-46
2023/07/23 04:40:48;;;;;;;10.77;6.27;;;;;;;;;;5097270;28;20786;-46
2023/07/23 04:43:13;;;;;;;9.95;6.63;;;;;;;;;;5101780;27;20277;-45
2023/07/23 04:45:38;;;;;;;10.27;7.50;;;;;;;;;;5104437;27;20012;-46
2023/07/23 04:48:04;;;;;;;6.40;4.77;;;;;;;;;;5102633;28;20313;-46
2023/07/23 04:50:29;;;;;;;11.88;7.70;;;;;;;;;;5103772;28;20273;-46
2023/07/23 04:52:54;;;;;;;10.73;7.20;;;;;;;;;;5097960;28;20070;-46
2023/07/23 04:55:19;;;;;;;12.03;7.00;;;;;;;;;;5099683;28;20442;-45
2023/07/23 04:57:45;;;;;;;8.83;6.00;;;;;;;;;;5102404;28;20254;-46
2023/07/23 05:00:11;;;;;;;12.90;7.33;;;;;;;;;;5095447;28;20289;-45
2023/07/23 05:02:36;;;;;;;14.35;8.80;;;;;;;;;;5095214;28;20059;-46
2023/07/23 05:05:01;;;;;;;12.23;7.80;;;;;;;;;;5101487;28;20074;-47
2023/07/23 05:07:26;;;;;;;12.17;8.27;;;;;;;;;;5105224;27;20035;-46
2023/07/23 05:09:52;;;;;;;10.90;7.27;;;;;;;;;;5102233;28;20844;-45
2023/07/23 05:12:17;;;;;;;11.13;7.43;;;;;;;;;;5100344;28;20307;-46
2023/07/23 05:14:45;;;;;;;13.07;7.13;;;;;;;;;;5097472;28;20020;-46
2023/07/23 05:17:11;;;;;;;11.60;6.88;;;;;;;;;;5098957;28;20281;-47
2023/07/23 05:19:36;;;;;;;12.60;7.65;;;;;;;;;;5102780;28;20482;-45
2023/07/23 05:22:02;;;;;;;12.80;7.07;;;;;;;;;;5092329;28;20058;-46
2023/07/23 05:24:27;;;;;;;12.90;7.68;;;;;;;;;;5103117;28;20266;-46
2023/07/23 05:26:52;;;;;;;14.37;8.33;;;;;;;;;;5096943;28;20030;-46
2023/07/23 05:29:18;;;;;;;12.23;7.13;;;;;;;;;;5101800;28;20023;-46
2023/07/23 05:31:43;;;;;;;11.27;7.13;;;;;;;;;;5100803;28;20289;-45
2023/07/23 05:34:08;;;;;;;13.70;7.10;;;;;;;;;;5100685;27;20277;-46
2023/07/23 05:36:33;;;;;;;12.00;7.43;;;;;;;;;;5104342;28;20470;-45
2023/07/23 05:38:59;;;;;;;11.50;6.77;;;;;;;;;;5098771;27;20294;-46
2023/07/23 05:41:24;;;;;;;11.70;6.72;;;;;;;;;;5104144;27;20031;-46
2023/07/23 05:43:49;;;;;;;10.63;6.85;;;;;;;;;;5100200;28;20099;-46
2023/07/23 05:46:15;;;;;;;10.30;6.37;;;;;;;;;;5100369;28;20028;-46
2023/07/23 05:48:40;;;;;;;12.32;7.40;;;;;;;;;;5104910;28;20028;-46
2023/07/23 05:51:05;;;;;;;10.00;7.20;;;;;;;;;;5106669;27;20051;-47
2023/07/23 05:53:30;;;;;;;10.43;6.47;;;;;;;;;;5111411;27;20277;-46
2023/07/23 05:55:56;;;;;;;13.27;6.63;;;;;;;;;;5104671;27;20046;-46
2023/07/23 05:58:21;;;;;;;11.23;6.63;;;;;;;;;;5103881;28;20055;-47
2023/07/23 06:00:46;;;;;;;10.57;6.80;;;;;;;;;;5103804;27;20041;-46
2023/07/23 06:03:11;;;;;;;11.27;7.33;;;;;;;;;;5100656;28;20317;-46
2023/07/23 06:05:37;;;;;;;11.43;7.05;;;;;;;;;;5107052;28;20057;-45
2023/07/23 06:08:02;;;;;;;13.40;6.40;;;;;;;;;;5102494;28;20027;-47
2023/07/23 06:10:27;;;;;;;11.65;7.18;;;;;;;;;;5109225;27;20054;-45
2023/07/23 06:12:52;;;;;;;11.13;6.90;;;;;;;;;;5103317;28;20020;-45
2023/07/23 06:15:19;;;;;;;9.73;6.50;;;;;;;;;;5101770;28;20030;-46
2023/07/23 06:17:44;;;;;;;10.85;6.80;;;;;;;;;;5104217;28;20036;-46
2023/07/23 06:20:10;;;;;;;13.03;8.00;;;;;;;;;;5101694;28;21165;-46
2023/07/23 06:22:35;;;;;;;11.98;6.97;;;;;;;;;;5099392;27;20060;-46
2023/07/23 06:25:00;;;;;;;10.30;6.83;;;;;;;;;;5097423;28;20028;-46
2023/07/23 06:27:26;;;;;;;12.00;6.57;;;;;;;;;;5101348;27;20282;-46
2023/07/23 06:29:51;;;;;;;7.82;4.15;;;;;;;;;;5103877;28;20308;-46
2023/07/23 06:32:16;;;;;;;12.17;6.90;;;;;;;;;;5108982;27;20094;-46
2023/07/23 06:34:41;;;;;;;10.77;6.43;;;;;;;;;;5104205;28;20065;-44
2023/07/23 06:37:07;;;;;;;10.93;6.60;;;;;;;;;;5101135;27;20100;-46
2023/07/23 06:39:33;;;;;;;9.50;5.80;;;;;;;;;;5105438;28;20635;-45
2023/07/23 06:41:58;;;;;;;10.50;6.43;;;;;;;;;;5097125;27;20313;-45
2023/07/23 06:44:23;;;;;;;11.17;6.00;;;;;;;;;;5104565;28;20477;-46
2023/07/23 06:46:48;;;;;;;13.77;6.13;;;;;;;;;;5105595;28;20016;-47
2023/07/23 06:49:14;;;;;;;11.57;7.03;;;;;;;;;;5096957;27;20055;-46
2023/07/23 06:51:39;;;;;;;11.63;7.18;;;;;;;;;;5096855;28;20501;-46
2023/07/23 06:54:05;;;;;;;10.63;5.87;;;;;;;;;;5096974;28;20485;-46
2023/07/23 06:56:30;;;;;;;10.37;6.97;;;;;;;;;;5098114;28;20022;-45
2023/07/23 06:58:55;;;;;;;12.32;6.90;;;;;;;;;;5097096;28;20277;-45
2023/07/23 07:01:22;;;;;;;9.30;5.43;;;;;;;;;;5090396;28;20036;-46
2023/07/23 07:03:47;;;;;;;11.55;5.97;;;;;;;;;;5089692;28;20369;-46
2023/07/23 07:06:12;;;;;;;10.37;5.67;;;;;;;;;;5097387;28;20119;-46
2023/07/23 07:08:37;;;;;;;9.90;5.63;;;;;;;;;;5095365;28;20492;-46
2023/07/23 07:11:03;;;;;;;10.73;6.03;;;;;;;;;;5093805;28;20028;-46
2023/07/23 07:13:30;;;;;;;10.77;5.85;;;;;;;;;;5097412;28;20027;-46
2023/07/23 07:15:55;;;;;;;7.18;3.83;;;;;;;;;;5096195;28;20023;-46
2023/07/23 07:18:20;;;;;;;9.27;5.93;;;;;;;;;;5101864;28;20019;-46
2023/07/23 07:20:52;;;;;;;8.30;5.57;;;;;;;;;;5094148;27;20826;-46
2023/07/23 07:23:17;;;;;;;9.85;5.38;;;;;;;;;;5103564;28;20030;-46
2023/07/23 07:25:43;;;;;;;8.97;5.03;;;;;;;;;;5092818;28;20406;-46
2023/07/23 07:28:08;;;;;;;10.00;5.10;;;;;;;;;;5090266;28;20077;-45
2023/07/23 07:30:33;;;;;;;7.10;4.63;;;;;;;;;;5101796;27;20277;-46
2023/07/23 07:32:58;;;;;;;8.17;4.30;;;;;;;;;;5088803;28;20019;-45
2023/07/23 07:35:23;;;;;;;7.07;3.75;;;;;;;;;;5088507;28;20039;-45
2023/07/23 07:37:49;;;;;;;6.43;2.83;;;;;;;;;;5104161;28;20024;-47
2023/07/23 07:40:14;;;;;;;8.30;4.40;;;;;;;;;;5097709;27;20032;-46
2023/07/23 07:42:40;;;;;;;8.02;4.45;;;;;;;;;;5097609;28;20031;-46
2023/07/23 07:45:05;;;;;;;10.95;4.47;;;;;;;;;;5104496;28;20086;-45
2023/07/23 07:47:31;;;;;;;4.78;2.58;;;;;;;;;;5097654;28;20436;-45
2023/07/23 07:49:56;;;;;;;7.50;4.07;;;;;;;;;;5103776;28;20449;-46
2023/07/23 07:52:21;;;;;;;9.30;4.10;;;;;;;;;;5103353;27;20019;-46
2023/07/23 07:54:46;;;;;;;6.17;3.47;;;;;;;;;;5106385;28;20022;-46
2023/07/23 07:57:12;;;;;;;8.70;5.03;;;;;;;;;;5096892;28;20375;-46
2023/07/23 07:59:37;;;;;;;7.18;3.88;;;;;;;;;;5101038;28;20020;-45
2023/07/23 08:02:03;;;;;;;4.97;3.60;;;;;;;;;;5102274;27;20023;-46
2023/07/23 08:04:28;;;;;;;9.05;3.40;;;;;;;;;;5101256;28;20065;-46
2023/07/23 08:06:54;;;;;;;8.15;3.80;;;;;;;;;;5095137;27;20557;-45
2023/07/23 08:09:20;;;;;;;9.77;4.57;;;;;;;;;;5092660;28;20066;-47
2023/07/23 08:11:46;;;;;;;8.95;5.03;;;;;;;;;;5090175;27;20272;-46
2023/07/23 08:14:13;;;;;;;5.40;3.08;;;;;;;;;;5105812;27;20015;-46
2023/07/23 08:16:39;;;;;;;5.35;3.13;;;;;;;;;;5103160;28;20015;-45
2023/07/23 08:19:04;;;;;;;9.23;3.63;;;;;;;;;;5089097;27;20028;-45
2023/07/23 08:21:30;;;;;;;8.98;3.28;;;;;;;;;;5091337;27;20016;-46
2023/07/23 08:23:55;;;;;;;7.72;3.53;;;;;;;;;;5094840;28;20064;-46
2023/07/23 08:26:21;;;;;;;5.10;3.25;;;;;;;;;;5095740;28;20098;-46
2023/07/23 08:28:53;;;;;;;7.00;3.85;;;;;;;;;;5101986;28;20028;-46
2023/07/23 08:31:19;;;;;;;6.65;3.25;;;;;;;;;;5102273;28;20027;-46
2023/07/23 08:33:49;;;;;;;8.38;3.08;;;;;;;;;;5093465;28;20023;-46
2023/07/23 08:36:16;;;;;;;8.60;3.15;;;;;;;;;;5097212;28;20058;-45
2023/07/23 08:38:41;;;;;;;6.55;3.80;;;;;;;;;;5103202;28;20020;-47
2023/07/23 08:41:15;;;;;;;6.90;3.15;;;;;;;;;;5102267;28;20028;-45
2023/07/23 08:44:00;;;;;;;8.05;3.33;;;;;;;;;;5101760;28;20061;-47
2023/07/23 08:46:26;;;;;;;6.07;3.17;;;;;;;;;;5099222;28;20026;-46
2023/07/23 08:48:55;;;;;;;7.00;3.25;;;;;;;;;;5100807;28;20489;-46
2023/07/23 08:51:22;;;;;;;5.18;3.40;;;;;;;;;;5099825;28;20493;-45
2023/07/23 08:53:48;;;;;;;7.07;3.25;;;;;;;;;;5085822;28;20024;-46
2023/07/23 08:56:13;;;;;;;11.23;4.10;;;;;;;;;;5089221;28;20035;-45
2023/07/23 08:58:40;;;;;;;9.65;3.97;;;;;;;;;;5073925;28;20039;-45
2023/07/23 09:01:06;;;;;;;6.93;3.85;;;;;;;;;;5095649;28;20027;-46
2023/07/23 09:03:32;;;;;;;10.80;3.85;;;;;;;;;;5100018;28;20489;-42
2023/07/23 09:05:57;;;;;;;6.75;3.97;;;;;;;;;;5095806;27;20032;-45
2023/07/23 09:08:23;;;;;;;7.47;3.50;;;;;;;;;;5089525;28;20035;-45
2023/07/23 09:10:48;;;;;;;10.13;3.25;;;;;;;;;;5091278;27;20029;-45
2023/07/23 09:13:14;;;;;;;10.33;3.83;;;;;;;;;;5093539;28;20027;-45
2023/07/23 09:15:52;;;;;;;8.70;3.67;;;;;;;;;;5093051;28;20507;-44
2023/07/23 09:18:18;;;;;;;8.05;4.05;;;;;;;;;;5081212;28;20102;-46
2023/07/23 09:20:49;;;;;;;8.00;3.67;;;;;;;;;;5090507;28;20059;-46
2023/07/23 09:23:14;;;;;;;7.15;3.75;;;;;;;;;;5096787;28;20031;-45
2023/07/23 09:25:41;;;;;;;6.25;4.20;;;;;;;;;;5099479;28;20016;-45
2023/07/23 09:28:07;;;;;;;7.45;3.83;;;;;;;;;;5090493;28;20036;-45
2023/07/23 09:30:32;;;;;;;4.88;3.13;;;;;;;;;;5098278;28;20388;-46
2023/07/23 09:32:58;;;;;;;4.82;2.78;;;;;;;;;;5099220;28;20145;-45
2023/07/23 09:35:24;;;;;;;7.07;3.50;;;;;;;;;;5096112;28;20102;-46
2023/07/23 09:37:57;;;;;;;6.60;3.17;;;;;;;;;;5093187;28;20036;-46
2023/07/23 09:40:31;;;;;;;10.95;3.83;;;;;;;;;;5099547;28;20071;-46
2023/07/23 09:42:57;;;;;;;7.32;3.30;;;;;;;;;;5099434;28;20028;-47
2023/07/23 09:45:22;;;;;;;8.95;3.78;;;;;;;;;;5097155;28;20073;-47
2023/07/23 09:47:50;;;;;;;8.00;3.42;;;;;;;;;;5095853;28;20024;-46
2023/07/23 09:50:16;;;;;;;5.72;3.28;;;;;;;;;;5098063;28;20949;-46
2023/07/23 09:52:41;;;;;;;6.15;3.40;;;;;;;;;;5093887;28;20023;-46
2023/07/23 09:55:07;;;;;;;3.00;1.50;;;;;;;;;;5091632;28;20028;-46
2023/07/23 09:57:34;;;;;;;9.00;3.38;;;;;;;;;;5090956;28;20411;-46
2023/07/23 10:00:00;;;;;;;7.75;3.72;;;;;;;;;;5094494;28;20870;-46
2023/07/23 10:02:27;;;;;;;4.40;1.77;;;;;;;;;;5094611;28;20020;-46
2023/07/23 10:04:54;;;;;;;7.72;3.58;;;;;;;;;;5098444;28;20015;-46
2023/07/23 10:07:20;;;;;;;5.40;3.25;;;;;;;;;;5092517;28;20024;-47
2023/07/23 10:09:47;;;;;;;9.27;3.30;;;;;;;;;;5090149;28;20056;-47
2023/07/23 10:12:13;;;;;;;6.13;2.97;;;;;;;;;;5085822;28;20040;-45
2023/07/23 10:14:38;;;;;;;8.57;2.88;;;;;;;;;;5071038;28;20062;-46
2023/07/23 10:17:04;;;;;;;8.00;4.10;;;;;;;;;;5089509;28;20024;-47
2023/07/23 10:19:30;;;;;;;6.68;3.83;;;;;;;;;;5092069;28;21201;-47
2023/07/23 10:21:55;;;;;;;7.68;3.78;;;;;;;;;;5098715;28;20115;-46
2023/07/23 10:24:20;;;;;;;7.60;4.00;;;;;;;;;;5099479;28;20123;-46
2023/07/23 10:26:46;;;;;;;7.63;3.77;;;;;;;;;;5101372;28;20277;-46
2023/07/23 10:29:13;;;;;;;9.73;4.20;;;;;;;;;;5095196;28;20276;-47
2023/07/23 10:31:39;;;;;;;7.50;2.75;;;;;;;;;;5095152;28;20023;-46
2023/07/23 10:34:25;;;;;;;6.88;2.42;;;;;;;;;;5097650;28;20049;-45
2023/07/23 10:37:10;;;;;;;8.40;4.90;;;;;;;;;;5099596;28;20019;-46
2023/07/23 10:39:39;;;;;;;7.35;3.72;;;;;;;;;;5099813;28;20052;-46
2023/07/23 10:42:04;;;;;;;6.63;3.70;;;;;;;;;;5100768;28;20177;-46
2023/07/23 10:44:30;;;;;;;8.63;4.30;;;;;;;;;;5096958;28;20024;-46
2023/07/23 10:46:59;;;;;;;7.30;4.30;;;;;;;;;;5099486;27;20057;-46
2023/07/23 10:49:29;;;;;;;6.82;3.78;;;;;;;;;;5099663;28;20039;-46
2023/07/23 10:51:54;;;;;;;6.93;4.13;;;;;;;;;;5097367;28;20081;-47
2023/07/23 10:54:20;;;;;;;6.20;3.53;;;;;;;;;;5097914;28;20036;-46
2023/07/23 10:56:47;;;;;;;5.45;3.13;;;;;;;;;;5086265;28;20073;-46
2023/07/23 10:59:16;;;;;;;6.97;3.53;;;;;;;;;;5096304;28;21063;-46
2023/07/23 11:01:46;;;;;;;7.85;3.70;;;;;;;;;;5097788;28;20032;-46
2023/07/23 11:04:16;;;;;;;6.72;3.40;;;;;;;;;;5098269;28;20047;-46
2023/07/23 11:06:56;;;;;;;16.70;6.88;;;;;;;;;;5093375;28;20436;-46
2023/07/23 11:09:28;;;;;;;6.57;3.42;;;;;;;;;;5096871;28;20035;-46
2023/07/23 11:11:54;;;;;;;10.52;5.07;;;;;;;;;;5095233;27;20027;-46
2023/07/23 11:14:19;;;;;;;10.45;4.57;;;;;;;;;;5097978;27;20035;-46
2023/07/23 11:16:46;;;;;;;8.43;3.90;;;;;;;;;;5094120;27;20048;-46
2023/07/23 11:19:12;;;;;;;7.75;3.88;;;;;;;;;;5096678;28;20290;-46
2023/07/23 11:21:44;;;;;;;10.05;4.30;;;;;;;;;;5094871;27;20061;-46
2023/07/23 11:24:10;;;;;;;11.27;3.90;;;;;;;;;;5095562;28;20620;-46
2023/07/23 11:26:35;;;;;;;10.00;3.60;;;;;;;;;;5096306;28;20027;-46
2023/07/23 11:29:01;;;;;;;7.33;4.13;;;;;;;;;;5110383;27;20027;-46
2023/07/23 11:31:26;;;;;;;13.43;8.02;;;;;;;;;;5096501;28;20113;-47
2023/07/23 11:33:52;;;;;;;7.03;4.70;;;;;;;;;;5096124;28;20028;-46
2023/07/23 11:36:18;;;;;;;5.72;3.55;;;;;;;;;;5095904;27;20648;-46
2023/07/23 11:38:43;;;;;;;6.45;3.25;;;;;;;;;;5098325;28;20036;-46
2023/07/23 11:41:10;;;;;;;7.90;4.23;;;;;;;;;;5095059;27;20020;-46
2023/07/23 11:43:37;;;;;;;9.27;3.42;;;;;;;;;;5097743;28;20027;-46
2023/07/23 11:46:02;;;;;;;8.63;3.22;;;;;;;;;;5097675;28;20393;-46
2023/07/23 11:48:28;;;;;;;8.67;3.63;;;;;;;;;;5095238;28;20064;-46
2023/07/23 11:50:54;;;;;;;6.20;3.05;;;;;;;;;;5093790;28;20269;-46
2023/07/23 11:53:35;;;;;;;7.30;3.30;;;;;;;;;;5095616;28;20031;-47
2023/07/23 11:56:08;;;;;;;5.68;3.13;;;;;;;;;;5099602;27;20023;-46
2023/07/23 11:58:34;;;;;;;9.95;4.22;;;;;;;;;;5095356;28;20031;-46
2023/07/23 12:01:00;;;;;;;8.93;4.13;;;;;;;;;;5097746;28;20076;-46
2023/07/23 12:03:26;;;;;;;6.22;3.90;;;;;;;;;;5095518;28;20032;-46
2023/07/23 12:05:51;;;;;;;9.10;4.07;;;;;;;;;;5095443;27;20634;-46
2023/07/23 12:08:16;;;;;;;9.52;4.18;;;;;;;;;;5083716;28;20118;-47
2023/07/23 12:10:42;;;;;;;12.57;7.18;;;;;;;;;;5087877;28;20042;-47
2023/07/23 12:13:08;;;;;;;7.05;4.03;;;;;;;;;;5092981;28;20036;-46
2023/07/23 12:15:34;;;;;;;7.35;3.80;;;;;;;;;;5099384;27;20023;-46
2023/07/23 12:17:59;;;;;;;7.83;3.87;;;;;;;;;;5099646;28;20397;-46
2023/07/23 12:20:25;;;;;;;5.20;3.83;;;;;;;;;;5099006;27;20091;-46
2023/07/23 12:22:54;;;;;;;6.75;3.88;;;;;;;;;;5097595;28;20081;-46
2023/07/23 12:25:20;;;;;;;7.13;3.80;;;;;;;;;;5097888;28;20035;-46
2023/07/23 12:27:45;;;;;;;6.88;3.97;;;;;;;;;;5100089;28;20058;-46
2023/07/23 12:30:11;;;;;;;4.57;2.20;;;;;;;;;;5101118;28;20028;-46
2023/07/23 12:32:36;;;;;;;5.28;3.72;;;;;;;;;;5100920;28;20362;-46
2023/07/23 12:35:02;;;;;;;6.90;3.67;;;;;;;;;;5100408;28;20477;-47
2023/07/23 12:37:27;;;;;;;6.05;3.42;;;;;;;;;;5100303;28;20384;-47
2023/07/23 12:39:54;;;;;;;4.68;3.30;;;;;;;;;;5100023;28;20031;-46
2023/07/23 12:42:19;;;;;;;6.53;3.97;;;;;;;;;;5100029;28;20024;-46
2023/07/23 12:44:45;;;;;;;9.37;3.87;;;;;;;;;;5098019;28;20755;-46
2023/07/23 12:47:10;;;;;;;5.80;3.50;;;;;;;;;;5099085;28;20027;-45
2023/07/23 12:49:35;;;;;;;6.93;3.70;;;;;;;;;;5099039;28;20340;-46
2023/07/23 12:52:01;;;;;;;5.90;3.65;;;;;;;;;;5099187;28;20020;-46
2023/07/23 12:54:26;;;;;;;11.30;6.80;;;;;;;;;;5102186;28;20115;-46
2023/07/23 12:56:53;;;;;;;10.47;4.67;;;;;;;;;;5099198;27;20047;-46
2023/07/23 12:59:18;;;;;;;6.97;3.35;;;;;;;;;;5098722;28;20059;-47
2023/07/23 13:01:43;;;;;;;9.23;3.60;;;;;;;;;;5097612;28;20043;-46
2023/07/23 13:04:08;;;;;;;7.20;3.57;;;;;;;;;;5097901;28;20817;-50
2023/07/23 13:06:34;;;;;;;10.83;3.47;;;;;;;;;;5098196;28;20278;-46
2023/07/23 13:08:59;;;;;;;5.90;3.37;;;;;;;;;;5093873;28;20887;-46
2023/07/23 13:11:24;;;;;;;6.50;3.20;;;;;;;;;;5082696;28;20035;-46
2023/07/23 13:13:50;;;;;;;13.53;4.43;;;;;;;;;;5093594;28;20369;-46
2023/07/23 13:16:16;;;;;;;9.60;3.35;;;;;;;;;;5091152;28;20073;-47
2023/07/23 13:18:41;;;;;;;5.50;2.53;;;;;;;;;;5097966;28;20027;-46
2023/07/23 13:21:07;;;;;;;9.63;4.57;;;;;;;;;;5098043;28;20057;-46
2023/07/23 13:23:32;;;;;;;7.60;4.50;;;;;;;;;;5099940;28;20751;-47
2023/07/23 13:25:57;;;;;;;16.23;9.00;;;;;;;;;;5093657;28;20051;-46
2023/07/23 13:28:22;;;;;;;12.83;6.93;;;;;;;;;;5092791;28;20069;-46
2023/07/23 13:30:49;;;;;;;9.43;5.40;;;;;;;;;;5091955;28;20280;-46
2023/07/23 13:33:15;;;;;;;10.45;5.80;;;;;;;;;;5094111;28;20405;-47
2023/07/23 13:35:40;;;;;;;11.10;5.50;;;;;;;;;;5097512;28;20024;-47
2023/07/23 13:38:06;;;;;;;8.27;5.20;;;;;;;;;;5099582;28;20032;-46
2023/07/23 13:40:31;;;;;;;9.75;4.90;;;;;;;;;;5094900;28;20479;-46
2023/07/23 13:42:57;;;;;;;8.60;4.33;;;;;;;;;;5101842;28;20022;-46
2023/07/23 13:45:22;;;;;;;7.88;3.63;;;;;;;;;;5095763;28;20214;-46
2023/07/23 13:47:47;;;;;;;8.18;3.90;;;;;;;;;;5100744;28;20105;-46
2023/07/23 13:50:13;;;;;;;8.87;3.97;;;;;;;;;;5097587;28;20717;-46
2023/07/23 13:52:38;;;;;;;7.43;4.47;;;;;;;;;;5096928;28;20288;-46
2023/07/23 13:55:03;;;;;;;8.48;4.50;;;;;;;;;;5094603;28;20015;-46
2023/07/23 13:57:29;;;;;;;10.90;3.80;;;;;;;;;;5095711;27;20034;-47
2023/07/23 13:59:55;;;;;;;8.30;4.10;;;;;;;;;;5100901;28;20355;-46
2023/07/23 14:02:21;;;;;;;6.80;4.30;;;;;;;;;;5103744;27;20023;-46
2023/07/23 14:04:46;;;;;;;8.32;4.47;;;;;;;;;;5092408;28;20027;-46
2023/07/23 14:07:12;;;;;;;8.17;4.27;;;;;;;;;;5096950;27;20052;-46
2023/07/23 14:09:37;;;;;;;7.73;3.57;;;;;;;;;;5117395;27;20417;-47
2023/07/23 14:12:02;;;;;;;5.53;3.63;;;;;;;;;;5095430;28;20024;-46
2023/07/23 14:14:27;;;;;;;8.25;3.40;;;;;;;;;;5099852;28;20076;-46
2023/07/23 14:16:53;;;;;;;5.30;3.50;;;;;;;;;;5097719;28;20058;-47
2023/07/23 14:19:18;;;;;;;9.40;4.23;;;;;;;;;;5101028;28;20093;-46
2023/07/23 14:21:43;;;;;;;10.27;4.67;;;;;;;;;;5104377;27;20390;-46
2023/07/23 14:24:08;;;;;;;9.00;5.83;;;;;;;;;;5101007;28;20035;-46
2023/07/23 14:26:34;;;;;;;10.80;5.13;;;;;;;;;;5095649;28;20024;-47
2023/07/23 14:28:59;;;;;;;7.40;4.43;;;;;;;;;;5096633;28;20393;-46
2023/07/23 14:31:24;;;;;;;5.57;3.60;;;;;;;;;;5101438;27;20285;-47